createdAt,value
2022-12-19T00:00:32.058Z,6.44
2022-12-19T00:03:05.642Z,6.43
2022-12-19T00:05:19.351Z,6.45
2022-12-19T00:07:32.667Z,6.47
2022-12-19T00:09:47.123Z,6.48
2022-12-19T00:12:00.842Z,6.50
2022-12-19T00:14:15.856Z,6.48
2022-12-19T00:16:31.016Z,6.50
2022-12-19T00:18:45.716Z,6.49
2022-12-19T00:21:08.307Z,6.49
2022-12-19T00:23:18.807Z,6.47
2022-12-19T00:25:32.010Z,6.46
2022-12-19T00:27:45.207Z,6.44
2022-12-19T00:29:58.523Z,6.41
2022-12-19T00:32:13.683Z,6.37
2022-12-19T00:34:29.732Z,6.33
2022-12-19T00:36:43.627Z,6.31
2022-12-19T00:38:58.215Z,6.29
2022-12-19T00:41:15.969Z,6.28
2022-12-19T00:43:29.395Z,6.28
2022-12-19T00:45:43.977Z,6.28
2022-12-19T00:47:57.428Z,6.27
2022-12-19T00:50:12.985Z,6.27
2022-12-19T00:52:26.284Z,6.27
2022-12-19T00:54:43.312Z,6.28
2022-12-19T00:56:56.841Z,6.29
2022-12-19T00:59:11.535Z,6.31
2022-12-19T01:01:26.598Z,6.35
2022-12-19T01:03:46.171Z,6.36
2022-12-19T01:06:12.676Z,6.39
2022-12-19T01:08:26.549Z,6.39
2022-12-19T01:10:41.055Z,6.28
2022-12-19T01:12:54.342Z,6.18
2022-12-19T01:15:07.908Z,6.08
2022-12-19T01:17:21.286Z,6.02
2022-12-19T01:19:38.969Z,5.96
2022-12-19T01:21:55.440Z,5.89
2022-12-19T01:24:11.875Z,5.79
2022-12-19T01:26:25.647Z,5.71
2022-12-19T01:28:38.901Z,5.65
2022-12-19T01:30:52.180Z,5.56
2022-12-19T01:33:05.819Z,5.51
2022-12-19T01:35:21.686Z,5.49
2022-12-19T01:37:35.602Z,5.51
2022-12-19T01:39:48.948Z,5.52
2022-12-19T01:42:02.807Z,5.51
2022-12-19T01:44:15.907Z,5.48
2022-12-19T01:46:35.301Z,5.47
2022-12-19T01:48:50.304Z,5.47
2022-12-19T01:51:06.396Z,5.49
2022-12-19T01:53:20.400Z,5.41
2022-12-19T01:55:34.497Z,5.25
2022-12-19T01:57:47.771Z,5.10
2022-12-19T02:00:05.164Z,4.95
2022-12-19T02:02:32.339Z,4.87
2022-12-19T02:04:47.075Z,4.83
2022-12-19T02:07:14.967Z,4.83
2022-12-19T02:09:30.498Z,4.85
2022-12-19T02:11:44.537Z,4.87
2022-12-19T02:14:01.450Z,4.90
2022-12-19T02:16:29.988Z,4.93
2022-12-19T02:18:53.193Z,4.93
2022-12-19T02:21:26.709Z,4.91
2022-12-19T02:24:32.660Z,4.90
2022-12-19T02:27:04.284Z,4.89
2022-12-19T02:29:38.322Z,4.88
2022-12-19T02:31:57.991Z,4.90
2022-12-19T02:34:20.214Z,4.93
2022-12-19T02:36:47.428Z,4.96
2022-12-19T02:39:08.097Z,4.98
2022-12-19T02:41:26.541Z,4.99
2022-12-19T02:43:44.026Z,5.01
2022-12-19T02:45:59.009Z,5.02
2022-12-19T02:48:18.911Z,5.02
2022-12-19T02:50:38.855Z,5.03
2022-12-19T02:52:55.213Z,4.99
2022-12-19T02:55:13.652Z,4.96
2022-12-19T02:57:36.410Z,4.96
2022-12-19T03:00:05.756Z,4.95
2022-12-19T03:02:29.285Z,4.90
2022-12-19T03:04:52.283Z,4.87
2022-12-19T03:07:07.286Z,4.87
2022-12-19T03:09:28.229Z,4.86
2022-12-19T03:11:44.139Z,4.84
2022-12-19T03:14:01.561Z,4.83
2022-12-19T03:16:17.097Z,4.82
2022-12-19T03:18:31.533Z,4.83
2022-12-19T03:20:51.814Z,4.84
2022-12-19T03:23:05.097Z,4.87
2022-12-19T03:25:22.129Z,4.87
2022-12-19T03:27:39.274Z,4.87
2022-12-19T03:29:56.939Z,4.87
2022-12-19T03:32:14.290Z,4.84
2022-12-19T03:34:31.887Z,4.79
2022-12-19T03:36:50.260Z,4.72
2022-12-19T03:39:08.375Z,4.66
2022-12-19T03:41:45.049Z,4.63
2022-12-19T03:43:58.354Z,4.63
2022-12-19T03:46:17.098Z,4.65
2022-12-19T03:48:35.512Z,4.65
2022-12-19T03:50:55.816Z,4.63
2022-12-19T03:53:19.154Z,4.62
2022-12-19T03:55:37.973Z,4.60
2022-12-19T03:57:55.346Z,4.60
2022-12-19T04:00:12.353Z,4.60
2022-12-19T04:02:27.703Z,4.62
2022-12-19T04:04:43.717Z,4.64
2022-12-19T04:06:57.631Z,4.65
2022-12-19T04:09:11.842Z,4.66
2022-12-19T04:11:26.504Z,4.66
2022-12-19T04:13:44.834Z,4.68
2022-12-19T04:16:04.260Z,4.69
2022-12-19T04:18:19.554Z,4.71
2022-12-19T04:20:34.736Z,4.72
2022-12-19T04:22:50.841Z,4.73
2022-12-19T04:25:06.918Z,4.72
2022-12-19T04:27:21.275Z,4.70
2022-12-19T04:29:36.600Z,4.68
2022-12-19T04:31:50.536Z,4.67
2022-12-19T04:34:04.467Z,4.66
2022-12-19T04:36:18.287Z,4.64
2022-12-19T04:38:31.987Z,4.60
2022-12-19T04:40:45.086Z,4.56
2022-12-19T04:42:58.457Z,4.52
2022-12-19T04:45:12.973Z,4.51
2022-12-19T04:47:26.714Z,4.49
2022-12-19T04:49:40.355Z,4.50
2022-12-19T04:51:53.598Z,4.51
2022-12-19T04:54:07.589Z,4.52
2022-12-19T04:56:20.996Z,4.51
2022-12-19T04:58:35.505Z,4.51
2022-12-19T05:00:48.788Z,4.48
2022-12-19T05:03:03.127Z,4.42
2022-12-19T05:05:17.005Z,4.37
2022-12-19T05:07:30.290Z,4.32
2022-12-19T05:09:43.548Z,4.30
2022-12-19T05:11:56.755Z,4.31
2022-12-19T05:14:10.055Z,4.32
2022-12-19T05:16:23.681Z,4.27
2022-12-19T05:18:37.438Z,4.24
2022-12-19T05:20:54.552Z,4.24
2022-12-19T05:23:15.248Z,4.23
2022-12-19T05:25:30.466Z,4.24
2022-12-19T05:27:43.874Z,4.24
2022-12-19T05:29:57.076Z,4.22
2022-12-19T05:32:10.393Z,4.18
2022-12-19T05:34:23.722Z,4.19
2022-12-19T05:36:37.056Z,4.20
2022-12-19T05:38:50.521Z,4.21
2022-12-19T05:41:03.883Z,4.20
2022-12-19T05:43:17.200Z,4.19
2022-12-19T05:45:30.514Z,4.18
2022-12-19T05:47:45.110Z,4.15
2022-12-19T05:49:58.156Z,4.13
2022-12-19T05:52:13.979Z,4.10
2022-12-19T05:54:27.410Z,4.07
2022-12-19T05:56:40.870Z,4.02
2022-12-19T05:58:55.724Z,3.99
2022-12-19T06:01:12.901Z,3.97
2022-12-19T06:03:26.313Z,3.96
2022-12-19T06:05:43.017Z,3.95
2022-12-19T06:07:57.500Z,3.94
2022-12-19T06:10:11.775Z,3.91
2022-12-19T06:12:25.178Z,3.88
2022-12-19T06:14:38.450Z,3.85
2022-12-19T06:16:51.748Z,3.85
2022-12-19T06:19:05.170Z,3.86
2022-12-19T06:21:20.083Z,3.86
2022-12-19T06:23:35.392Z,3.85
2022-12-19T06:25:48.869Z,3.85
2022-12-19T06:28:02.263Z,3.84
2022-12-19T06:30:18.160Z,3.84
2022-12-19T06:32:36.287Z,3.86
2022-12-19T06:35:06.641Z,3.86
2022-12-19T06:37:20.366Z,3.86
2022-12-19T06:39:33.784Z,3.84
2022-12-19T06:42:03.728Z,3.82
2022-12-19T06:44:19.042Z,3.83
2022-12-19T06:46:32.371Z,3.84
2022-12-19T06:48:45.719Z,3.84
2022-12-19T06:50:59.316Z,3.82
2022-12-19T06:53:12.710Z,3.79
2022-12-19T06:55:26.664Z,3.79
2022-12-19T06:57:47.049Z,3.77
2022-12-19T07:00:01.191Z,3.76
2022-12-19T07:02:25.466Z,3.76
2022-12-19T07:04:43.440Z,3.75
2022-12-19T07:06:56.880Z,3.73
2022-12-19T07:09:10.571Z,3.73
2022-12-19T07:11:24.849Z,3.72
2022-12-19T07:13:38.385Z,3.71
2022-12-19T07:15:52.246Z,3.70
2022-12-19T07:18:07.424Z,3.70
2022-12-19T07:20:22.844Z,3.69
2022-12-19T07:22:38.549Z,3.68
2022-12-19T07:24:51.918Z,3.66
2022-12-19T07:27:05.560Z,3.65
2022-12-19T07:29:19.536Z,3.66
2022-12-19T07:31:33.072Z,3.67
2022-12-19T07:33:47.186Z,3.65
2022-12-19T07:36:00.600Z,3.65
2022-12-19T07:38:14.364Z,3.64
2022-12-19T07:40:27.987Z,3.62
2022-12-19T07:42:41.338Z,3.61
2022-12-19T07:44:54.605Z,3.60
2022-12-19T07:47:09.190Z,3.57
2022-12-19T07:49:25.505Z,3.56
2022-12-19T07:51:38.828Z,3.55
2022-12-19T07:53:52.074Z,3.54
2022-12-19T07:56:05.316Z,3.53
2022-12-19T07:58:18.521Z,3.51
2022-12-19T08:00:32.594Z,3.49
2022-12-19T08:02:45.983Z,3.48
2022-12-19T08:04:59.749Z,3.48
2022-12-19T08:07:14.483Z,3.47
2022-12-19T08:09:28.899Z,3.46
2022-12-19T08:11:42.166Z,3.43
2022-12-19T08:13:55.872Z,3.43
2022-12-19T08:16:09.824Z,3.45
2022-12-19T08:18:23.021Z,3.44
2022-12-19T08:20:36.315Z,3.42
2022-12-19T08:22:49.820Z,3.41
2022-12-19T08:25:03.230Z,3.40
2022-12-19T08:27:16.712Z,3.39
2022-12-19T08:29:30.446Z,3.37
2022-12-19T08:31:43.710Z,3.34
2022-12-19T08:33:57.332Z,3.32
2022-12-19T08:36:13.303Z,3.32
2022-12-19T08:38:26.625Z,3.33
2022-12-19T08:40:44.336Z,3.35
2022-12-19T08:43:00.843Z,3.39
2022-12-19T08:45:15.196Z,3.41
2022-12-19T08:47:28.475Z,3.42
2022-12-19T08:49:42.011Z,3.43
2022-12-19T08:51:55.282Z,3.43
2022-12-19T08:54:08.698Z,3.42
2022-12-19T08:56:26.484Z,3.41
2022-12-19T08:58:40.194Z,3.41
2022-12-19T09:00:57.584Z,3.39
2022-12-19T09:03:16.281Z,3.37
2022-12-19T09:06:03.700Z,3.36
2022-12-19T09:08:05.392Z,3.35
2022-12-19T09:10:18.705Z,3.37
2022-12-19T09:12:33.308Z,3.36
2022-12-19T09:14:47.293Z,3.35
2022-12-19T09:17:01.715Z,3.33
2022-12-19T09:19:18.065Z,3.32
2022-12-19T09:21:34.088Z,3.32
2022-12-19T09:23:51.133Z,3.31
2022-12-19T09:26:08.928Z,3.31
2022-12-19T09:28:29.479Z,3.31
2022-12-19T09:30:43.015Z,3.31
2022-12-19T09:32:56.203Z,3.30
2022-12-19T09:35:10.201Z,3.31
2022-12-19T09:37:23.464Z,3.30
2022-12-19T09:39:37.568Z,3.30
2022-12-19T09:42:13.424Z,3.30
2022-12-19T09:44:44.136Z,3.30
2022-12-19T09:47:00.350Z,3.31
2022-12-19T09:49:20.123Z,3.31
2022-12-19T09:51:42.151Z,3.32
2022-12-19T09:54:05.082Z,3.33
2022-12-19T09:56:21.141Z,3.34
2022-12-19T09:58:46.077Z,3.33
2022-12-19T10:01:05.566Z,3.31
2022-12-19T10:03:25.553Z,3.31
2022-12-19T10:06:54.388Z,3.31
2022-12-19T10:08:22.797Z,3.32
2022-12-19T10:12:30.121Z,3.33
2022-12-19T10:13:35.737Z,3.34
2022-12-19T10:16:00.362Z,3.33
2022-12-19T10:18:36.140Z,3.33
2022-12-19T10:20:55.841Z,3.33
2022-12-19T10:23:29.643Z,3.33
2022-12-19T10:25:46.574Z,3.33
2022-12-19T10:28:09.407Z,3.33
2022-12-19T10:30:24.613Z,3.34
2022-12-19T10:32:45.587Z,3.35
2022-12-19T10:34:59.552Z,3.34
2022-12-19T10:37:29.356Z,3.33
2022-12-19T10:39:58.649Z,3.31
2022-12-19T10:42:20.325Z,3.30
2022-12-19T10:44:38.683Z,3.29
2022-12-19T10:46:54.376Z,3.29
2022-12-19T10:49:14.775Z,3.30
2022-12-19T10:51:31.579Z,3.31
2022-12-19T10:53:44.973Z,3.30
2022-12-19T10:56:03.948Z,3.30
2022-12-19T10:58:36.980Z,3.29
2022-12-19T11:01:00.198Z,3.28
2022-12-19T11:03:19.549Z,3.26
2022-12-19T11:05:42.543Z,3.23
2022-12-19T11:08:02.668Z,3.23
2022-12-19T11:12:02.672Z,3.24
2022-12-19T11:17:24.278Z,3.23
2022-12-19T11:19:27.509Z,3.26
2022-12-19T11:27:49.882Z,3.27
2022-12-19T11:29:24.868Z,3.27
2022-12-19T11:30:08.455Z,3.28
2022-12-19T11:30:59.585Z,3.28
2022-12-19T11:32:39.065Z,3.29
2022-12-19T11:34:40.257Z,3.30
2022-12-19T11:36:57.497Z,3.30
2022-12-19T11:39:16.069Z,3.30
2022-12-19T11:41:37.519Z,3.29
2022-12-19T11:44:00.120Z,3.29
2022-12-19T11:46:22.483Z,3.28
2022-12-19T11:48:44.385Z,3.27
2022-12-19T11:51:05.004Z,3.26
2022-12-19T11:53:23.514Z,3.25
2022-12-19T11:55:45.445Z,3.24
2022-12-19T11:58:00.909Z,3.23
2022-12-19T12:00:22.121Z,3.23
2022-12-19T12:03:14.005Z,3.21
2022-12-19T12:05:57.748Z,3.21
2022-12-19T12:10:27.826Z,3.22
2022-12-19T12:15:52.273Z,3.21
2022-12-19T12:21:00.198Z,3.21
2022-12-19T12:28:34.604Z,3.21
2022-12-19T12:31:20.197Z,3.22
2022-12-19T12:31:22.909Z,3.24
2022-12-19T12:31:43.659Z,3.22
2022-12-19T12:32:00.974Z,3.22
2022-12-19T12:32:06.046Z,3.20
2022-12-19T12:35:31.716Z,3.19
2022-12-19T12:38:45.101Z,3.17
2022-12-19T12:41:21.965Z,3.17
2022-12-19T12:43:50.423Z,3.17
2022-12-19T12:46:04.347Z,3.14
2022-12-19T12:48:28.270Z,3.13
2022-12-19T12:50:49.861Z,3.14
2022-12-19T12:53:11.364Z,3.15
2022-12-19T12:55:28.276Z,3.16
2022-12-19T12:57:42.932Z,3.16
2022-12-19T13:00:24.785Z,3.17
2022-12-19T13:02:39.510Z,3.16
2022-12-19T13:05:04.363Z,3.17
2022-12-19T13:07:33.016Z,3.18
2022-12-19T13:09:48.086Z,3.19
2022-12-19T13:12:23.419Z,3.19
2022-12-19T13:14:51.318Z,3.19
2022-12-19T13:17:05.708Z,3.17
2022-12-19T13:19:27.805Z,3.18
2022-12-19T13:22:09.939Z,3.18
2022-12-19T13:24:27.608Z,3.17
2022-12-19T13:26:54.848Z,3.16
2022-12-19T13:29:55.228Z,3.14
2022-12-19T13:32:22.220Z,3.13
2022-12-19T13:34:44.037Z,3.13
2022-12-19T13:39:48.417Z,3.13
2022-12-19T13:40:20.890Z,3.11
2022-12-19T13:43:10.703Z,3.12
2022-12-19T13:45:31.375Z,3.10
2022-12-19T13:47:48.123Z,3.11
2022-12-19T13:50:02.549Z,3.10
2022-12-19T13:52:18.525Z,3.10
2022-12-19T13:54:34.182Z,3.11
2022-12-19T13:56:47.575Z,3.11
2022-12-19T13:59:04.561Z,3.10
2022-12-19T14:01:27.856Z,3.08
2022-12-19T14:03:46.746Z,3.08
2022-12-19T14:06:16.535Z,3.08
2022-12-19T14:08:34.338Z,3.08
2022-12-19T14:11:43.815Z,3.08
2022-12-19T14:14:01.378Z,3.09
2022-12-19T14:16:22.897Z,3.10
2022-12-19T14:18:58.267Z,3.11
2022-12-19T14:22:05.735Z,3.11
2022-12-19T14:24:22.475Z,3.11
2022-12-19T14:28:23.736Z,3.11
2022-12-19T14:29:16.671Z,3.12
2022-12-19T14:32:40.286Z,3.12
2022-12-19T14:36:59.489Z,3.14
2022-12-19T14:39:28.957Z,3.14
2022-12-19T14:42:04.261Z,3.14
2022-12-19T14:51:42.973Z,3.12
2022-12-19T14:52:51.017Z,3.13
2022-12-19T14:54:24.919Z,3.12
2022-12-19T14:54:50.510Z,3.11
2022-12-19T14:56:16.764Z,3.12
2022-12-19T14:58:52.969Z,3.13
2022-12-19T15:01:09.103Z,3.15
2022-12-19T15:03:28.803Z,3.15
2022-12-19T15:05:42.271Z,3.16
2022-12-19T15:07:57.805Z,3.14
2022-12-19T15:11:03.852Z,3.14
2022-12-19T15:14:54.529Z,3.14
2022-12-19T15:16:01.913Z,3.13
2022-12-19T15:18:27.017Z,3.13
2022-12-19T15:20:40.484Z,3.15
2022-12-19T15:22:53.855Z,3.17
2022-12-19T15:25:13.501Z,3.18
2022-12-19T15:27:35.913Z,3.16
2022-12-19T15:29:49.579Z,3.14
2022-12-19T15:32:02.829Z,3.13
2022-12-19T15:34:38.007Z,3.11
2022-12-19T15:36:56.077Z,3.11
2022-12-19T15:39:09.878Z,3.12
2022-12-19T15:41:27.670Z,3.12
2022-12-19T15:44:04.619Z,3.13
2022-12-19T15:46:16.684Z,3.14
2022-12-19T15:48:30.588Z,3.13
2022-12-19T15:50:44.012Z,3.13
2022-12-19T15:52:58.799Z,3.13
2022-12-19T15:55:16.404Z,3.14
2022-12-19T15:57:39.614Z,3.14
2022-12-19T15:59:53.436Z,3.13
2022-12-19T16:02:07.557Z,3.12
2022-12-19T16:04:22.074Z,3.10
2022-12-19T16:06:35.784Z,3.11
2022-12-19T16:08:49.265Z,3.13
2022-12-19T16:11:03.142Z,3.15
2022-12-19T16:13:22.917Z,3.17
2022-12-19T16:15:39.617Z,3.17
2022-12-19T16:17:52.911Z,3.17
2022-12-19T16:20:06.143Z,3.18
2022-12-19T16:22:25.532Z,3.20
2022-12-19T16:24:38.872Z,3.22
2022-12-19T16:26:56.371Z,3.25
2022-12-19T16:29:17.085Z,3.28
2022-12-19T16:31:31.480Z,3.31
2022-12-19T16:33:45.150Z,3.32
2022-12-19T16:36:07.362Z,3.34
2022-12-19T16:38:21.400Z,3.35
2022-12-19T16:40:34.596Z,3.36
2022-12-19T16:42:48.876Z,3.38
2022-12-19T16:45:02.145Z,3.41
2022-12-19T16:47:19.611Z,3.43
2022-12-19T16:49:33.509Z,3.45
2022-12-19T16:51:47.259Z,3.46
2022-12-19T16:54:02.297Z,3.46
2022-12-19T16:56:24.530Z,3.46
2022-12-19T16:58:43.031Z,3.48
2022-12-19T17:00:59.194Z,3.50
2022-12-19T17:03:25.843Z,3.52
2022-12-19T17:05:39.338Z,3.57
2022-12-19T17:07:52.692Z,3.60
2022-12-19T17:10:05.891Z,3.62
2022-12-19T17:12:23.434Z,3.66
2022-12-19T17:14:37.720Z,3.69
2022-12-19T17:16:54.524Z,3.72
2022-12-19T17:19:08.053Z,3.75
2022-12-19T17:21:25.418Z,3.78
2022-12-19T17:23:38.922Z,3.82
2022-12-19T17:25:52.902Z,3.85
2022-12-19T17:28:06.392Z,3.90
2022-12-19T17:30:21.695Z,3.94
2022-12-19T17:32:35.385Z,3.96
2022-12-19T17:34:51.005Z,3.98
2022-12-19T17:37:06.931Z,4.01
2022-12-19T17:39:27.381Z,4.04
2022-12-19T17:41:40.792Z,4.07
2022-12-19T17:43:54.291Z,4.07
2022-12-19T17:46:08.170Z,4.09
2022-12-19T17:48:30.361Z,4.12
2022-12-19T17:50:44.876Z,4.14
2022-12-19T17:52:59.334Z,4.14
2022-12-19T17:55:24.349Z,4.14
2022-12-19T17:57:37.790Z,4.15
2022-12-19T17:59:51.442Z,4.15
2022-12-19T18:02:05.014Z,4.18
2022-12-19T18:04:22.328Z,4.20
2022-12-19T18:06:35.808Z,4.23
2022-12-19T18:08:49.660Z,4.26
2022-12-19T18:11:04.567Z,4.29
2022-12-19T18:13:17.937Z,4.30
2022-12-19T18:15:31.695Z,4.32
2022-12-19T18:17:46.194Z,4.35
2022-12-19T18:19:59.825Z,4.39
2022-12-19T18:22:17.916Z,4.42
2022-12-19T18:24:31.906Z,4.47
2022-12-19T18:26:45.654Z,4.52
2022-12-19T18:28:58.989Z,4.56
2022-12-19T18:31:19.242Z,4.60
2022-12-19T18:33:38.431Z,4.66
2022-12-19T18:35:52.986Z,4.71
2022-12-19T18:38:10.491Z,4.76
2022-12-19T18:40:31.184Z,4.80
2022-12-19T18:42:44.871Z,4.85
2022-12-19T18:44:58.127Z,4.90
2022-12-19T18:47:22.205Z,4.96
2022-12-19T18:49:37.922Z,5.03
2022-12-19T18:51:51.178Z,5.08
2022-12-19T18:54:05.311Z,5.11
2022-12-19T18:56:18.799Z,5.12
2022-12-19T18:58:32.423Z,5.16
2022-12-19T19:00:46.770Z,5.21
2022-12-19T19:03:03.417Z,5.24
2022-12-19T19:05:21.670Z,5.25
2022-12-19T19:07:35.101Z,5.27
2022-12-19T19:09:48.574Z,5.29
2022-12-19T19:12:22.088Z,5.30
2022-12-19T19:14:35.656Z,5.33
2022-12-19T19:16:50.992Z,5.35
2022-12-19T19:19:05.459Z,5.36
2022-12-19T19:21:19.923Z,5.37
2022-12-19T19:23:37.100Z,5.37
2022-12-19T19:25:51.800Z,5.37
2022-12-19T19:28:05.107Z,5.38
2022-12-19T19:30:19.145Z,5.40
2022-12-19T19:32:32.968Z,5.43
2022-12-19T19:34:47.338Z,5.47
2022-12-19T19:37:04.860Z,5.49
2022-12-19T19:39:18.589Z,5.51
2022-12-19T19:41:34.177Z,5.52
2022-12-19T19:43:47.421Z,5.56
2022-12-19T19:46:00.943Z,5.59
2022-12-19T19:48:14.580Z,5.61
2022-12-19T19:50:27.985Z,5.62
2022-12-19T19:52:41.945Z,5.63
2022-12-19T19:54:55.397Z,5.64
2022-12-19T19:57:09.499Z,5.65
2022-12-19T19:59:23.135Z,5.67
2022-12-19T20:01:36.470Z,5.70
2022-12-19T20:03:50.658Z,5.73
2022-12-19T20:06:07.464Z,5.76
2022-12-19T20:08:21.440Z,5.79
2022-12-19T20:10:34.936Z,5.83
2022-12-19T20:12:48.783Z,5.86
2022-12-19T20:15:02.235Z,5.90
2022-12-19T20:17:15.634Z,5.91
2022-12-19T20:19:29.059Z,5.93
2022-12-19T20:21:42.425Z,5.95
2022-12-19T20:23:55.748Z,5.98
2022-12-19T20:26:10.521Z,6.02
2022-12-19T20:28:23.826Z,6.07
2022-12-19T20:30:37.248Z,6.12
2022-12-19T20:32:50.897Z,6.17
2022-12-19T20:35:09.081Z,6.23
2022-12-19T20:37:26.517Z,6.28
2022-12-19T20:39:40.870Z,6.30
2022-12-19T20:41:55.170Z,6.34
2022-12-19T20:44:08.868Z,6.38
2022-12-19T20:46:24.158Z,6.42
2022-12-19T20:48:37.807Z,6.46
2022-12-19T20:50:51.043Z,6.50
2022-12-19T20:53:04.321Z,6.54
2022-12-19T20:55:18.084Z,6.53
2022-12-19T20:57:33.261Z,6.56
2022-12-19T20:59:46.463Z,6.59
2022-12-19T21:02:01.769Z,6.61
2022-12-19T21:04:15.321Z,6.63
2022-12-19T21:06:29.881Z,6.64
2022-12-19T21:08:43.462Z,6.66
2022-12-19T21:10:56.821Z,6.64
2022-12-19T21:13:10.059Z,6.65
2022-12-19T21:15:25.767Z,6.65
2022-12-19T21:17:39.118Z,6.62
2022-12-19T21:19:52.249Z,6.61
2022-12-19T21:22:05.772Z,6.63
2022-12-19T21:24:19.012Z,6.66
2022-12-19T21:26:32.896Z,6.67
2022-12-19T21:28:46.997Z,6.72
2022-12-19T21:31:04.563Z,6.74
2022-12-19T21:33:18.085Z,6.76
2022-12-19T21:35:31.581Z,6.77
2022-12-19T21:37:45.374Z,6.78
2022-12-19T21:39:58.893Z,6.78
2022-12-19T21:42:12.404Z,6.76
2022-12-19T21:44:25.783Z,6.75
2022-12-19T21:46:39.726Z,6.71
2022-12-19T21:48:54.800Z,6.71
2022-12-19T21:51:08.329Z,6.69
2022-12-19T21:53:21.970Z,6.67
2022-12-19T21:55:35.314Z,6.66
2022-12-19T21:57:48.740Z,6.66
2022-12-19T22:00:02.042Z,6.66
2022-12-19T22:02:18.219Z,6.65
2022-12-19T22:04:31.564Z,6.63
2022-12-19T22:06:44.890Z,6.60
2022-12-19T22:08:58.285Z,6.57
2022-12-19T22:11:18.666Z,6.54
2022-12-19T22:13:32.502Z,6.53
2022-12-19T22:15:45.827Z,6.50
2022-12-19T22:17:59.393Z,6.47
2022-12-19T22:20:14.303Z,6.42
2022-12-19T22:22:27.507Z,6.39
2022-12-19T22:24:41.024Z,6.38
2022-12-19T22:26:54.655Z,6.37
2022-12-19T22:29:10.370Z,6.36
2022-12-19T22:31:25.571Z,6.36
2022-12-19T22:33:38.913Z,6.37
2022-12-19T22:35:52.151Z,6.36
2022-12-19T22:38:05.398Z,6.34
2022-12-19T22:40:19.533Z,6.33
2022-12-19T22:42:33.739Z,6.31
2022-12-19T22:44:47.058Z,6.29
2022-12-19T22:47:01.156Z,6.26
2022-12-19T22:49:15.400Z,6.24
2022-12-19T22:51:29.296Z,6.23
2022-12-19T22:53:43.591Z,6.23
2022-12-19T22:55:56.976Z,6.23
2022-12-19T22:58:10.222Z,6.23
2022-12-19T23:00:24.346Z,6.23
2022-12-19T23:02:37.765Z,6.21
2022-12-19T23:04:51.294Z,6.20
2022-12-19T23:07:04.607Z,6.18
2022-12-19T23:09:19.790Z,6.15
2022-12-19T23:11:35.423Z,6.16
2022-12-19T23:13:49.860Z,6.15
2022-12-19T23:16:04.473Z,6.15
2022-12-19T23:18:17.789Z,6.15
2022-12-19T23:20:31.274Z,6.18
2022-12-19T23:22:44.913Z,6.19
2022-12-19T23:24:58.337Z,6.20
2022-12-19T23:27:11.752Z,6.22
2022-12-19T23:29:24.920Z,6.24
2022-12-19T23:31:38.995Z,6.26
2022-12-19T23:33:52.309Z,6.27
2022-12-19T23:36:05.977Z,6.26
2022-12-19T23:38:19.208Z,6.25
2022-12-19T23:40:32.698Z,6.26
2022-12-19T23:42:46.044Z,6.28
2022-12-19T23:44:59.299Z,6.31
2022-12-19T23:47:12.540Z,6.33
2022-12-19T23:49:25.791Z,6.33
2022-12-19T23:51:39.041Z,6.33
2022-12-19T23:53:52.572Z,6.35
2022-12-19T23:56:07.240Z,6.36
2022-12-19T23:58:24.366Z,6.37
